Emrys — ZGBU8 — position and weather

sailwx.info

Track history (hours):
 
Tides and Currents Weather Stations Pressure Air Temp Water Temp Dewpoint Dewpoint Depression Visibility Wind Speed Wind Dir Waves Ship Positions

Emrys

Last reported at 2017-Oct-17 05:59 UTC. Time now 2017-Oct-17 06:09 UTC.
Position N 37°55' W 122°28'.

Length 32 m.

Type: Pleasure craft. MMSI: 319037600.

Date/timePositionNaut miles runAvg speedWind from/ knotsBaromVisibWave heightAir tempDewpointWater temp
2017-Oct-17 05:59N 37°55' W 122°28'0 0.0
2017-Oct-17 05:29N 37°55' W 122°28'0 0.0
2017-Oct-17 04:59N 37°55' W 122°28'0 0.0
2017-Oct-17 04:29N 37°55' W 122°28'0 0.0
2017-Oct-17 03:59N 37°55' W 122°28'0 0.0
2017-Oct-17 03:14N 37°55' W 122°28'0 0.0
2017-Oct-17 02:59N 37°55' W 122°28'0 0.0
2017-Oct-17 02:26N 37°55' W 122°28'0 0.0
2017-Oct-17 01:59N 37°55' W 122°28'0 0.0
2017-Oct-17 01:29N 37°55' W 122°28'0 0.0
2017-Oct-17 00:59N 37°55' W 122°28'0 0.0
2017-Oct-17 00:29N 37°55' W 122°28'0 0.0
2017-Oct-16 23:59N 37°55' W 122°28'0 0.0
2017-Oct-16 23:29N 37°55' W 122°28'0 0.0
2017-Oct-16 22:59N 37°55' W 122°28'0 0.0
2017-Oct-16 22:29N 37°55' W 122°28'0 0.0
2017-Oct-16 21:56N 37°55' W 122°28'0 0.0
2017-Oct-16 21:26N 37°55' W 122°28'0 0.0
2017-Oct-16 20:59N 37°55' W 122°28'0 0.0
2017-Oct-16 20:29N 37°55' W 122°28'0 0.0
2017-Oct-16 19:56N 37°55' W 122°28'0 0.0
2017-Oct-16 19:29N 37°55' W 122°28'0 0.0
2017-Oct-16 18:56N 37°55' W 122°28'0 0.0
2017-Oct-16 18:26N 37°55' W 122°28'0 0.0
2017-Oct-16 17:59N 37°55' W 122°28'0 0.0
2017-Oct-16 17:29N 37°55' W 122°28'0 0.0
2017-Oct-16 16:56N 37°55' W 122°28'0 0.0
2017-Oct-16 16:29N 37°55' W 122°28'0 0.0
2017-Oct-16 15:59N 37°55' W 122°28'0 0.0
2017-Oct-16 15:29N 37°55' W 122°28'0 0.0
2017-Oct-16 14:59N 37°55' W 122°28'0 0.0
2017-Oct-16 14:26N 37°55' W 122°28'0 0.0
2017-Oct-16 13:29N 37°55' W 122°28'0 0.0
2017-Oct-16 12:59N 37°55' W 122°28'0 0.0
2017-Oct-16 12:29N 37°55' W 122°28'0 0.0
2017-Oct-16 11:59N 37°55' W 122°28'0 0.0
2017-Oct-16 11:29N 37°55' W 122°28'0 0.0
2017-Oct-16 10:59N 37°55' W 122°28'0 0.0
2017-Oct-16 10:26N 37°55' W 122°28'0 0.0
2017-Oct-16 09:56N 37°55' W 122°28'0 0.0
2017-Oct-16 09:29N 37°55' W 122°28'0 0.0
2017-Oct-16 08:59N 37°55' W 122°28'0 0.0
2017-Oct-16 08:29N 37°55' W 122°28'0 0.0
2017-Oct-16 07:59N 37°55' W 122°28'0 0.0
2017-Oct-16 07:29N 37°55' W 122°28'0 0.0
2017-Oct-16 06:59N 37°55' W 122°28'0 0.0
2017-Oct-16 06:29N 37°55' W 122°28'0 0.0
2017-Oct-16 05:59N 37°55' W 122°28'0 0.0
2017-Oct-16 05:29N 37°55' W 122°28'0 0.0
2017-Oct-16 04:59N 37°55' W 122°28'0 0.0
2017-Oct-16 04:29N 37°55' W 122°28'0 0.0
2017-Oct-16 03:59N 37°55' W 122°28'0 0.0
2017-Oct-16 03:29N 37°55' W 122°28'0 0.0
2017-Oct-16 02:59N 37°55' W 122°28'0 0.0
2017-Oct-16 02:29N 37°55' W 122°28'0 0.0
2017-Oct-16 01:59N 37°55' W 122°28'0 0.0
2017-Oct-16 01:29N 37°55' W 122°28'1 2.8
2017-Oct-16 01:00N 37°54' W 122°27'1 2.0
2017-Oct-16 00:30N 37°55' W 122°26'3 5.3
2017-Oct-15 23:58N 37°52' W 122°27'1 2.3
2017-Oct-15 23:30N 37°52' W 122°26'2 3.8
2017-Oct-15 22:52N 37°52' W 122°29'2 6.1
2017-Oct-15 22:29N 37°50' W 122°26'3 7.0
2017-Oct-15 22:00N 37°48' W 122°23'0 0.5
2017-Oct-15 21:27N 37°48' W 122°23'3 6.1
2017-Oct-15 21:00N 37°49' W 122°26'2 3.6
2017-Oct-15 20:30N 37°50' W 122°28'5 0.3
2017-Oct-15 02:22N 37°55' W 122°28'0 0.0
2017-Oct-15 01:58N 37°55' W 122°28'0 0.0
2017-Oct-15 01:28N 37°55' W 122°28'0 0.0
2017-Oct-14 22:01N 37°55' W 122°28'0 0.0
2017-Oct-14 21:58N 37°55' W 122°28'0 0.0
2017-Oct-14 19:55N 37°55' W 122°28'0 0.0
2017-Oct-14 19:28N 37°55' W 122°28'2 0.1
2017-Oct-14 00:27N 37°54' W 122°27'410.1
2017-Oct-14 00:00N 37°50' W 122°26'1 2.6
2017-Oct-13 23:29N 37°48' W 122°26'0 0.0
2017-Oct-13 22:59N 37°48' W 122°26'0 0.1
2017-Oct-13 22:29N 37°48' W 122°26'0 0.1
2017-Oct-13 21:59N 37°48' W 122°26'0 0.1
2017-Oct-13 21:29N 37°48' W 122°26'0 0.0
2017-Oct-13 20:59N 37°48' W 122°26'0 0.1
2017-Oct-13 20:29N 37°48' W 122°26'0 0.0
2017-Oct-13 19:59N 37°48' W 122°26'0 0.0
2017-Oct-13 19:29N 37°48' W 122°26'3 5.8
2017-Oct-13 19:00N 37°51' W 122°27'4 8.3
2017-Oct-13 18:30N 37°55' W 122°28'0 0.0
2017-Oct-13 18:00N 37°55' W 122°28'3 0.2
2017-Oct-13 04:17N 37°53' W 122°26'2 5.9
2017-Oct-13 03:59N 37°52' W 122°25'2 4.1
2017-Oct-13 03:30N 37°50' W 122°25'0 0.1
2017-Oct-13 02:41N 37°50' W 122°25'0 0.6
2017-Oct-13 02:17N 37°50' W 122°25'1 2.8
2017-Oct-13 02:00N 37°49' W 122°25'2 4.9
2017-Oct-13 01:30N 37°50' W 122°28'5 0.8
2017-Oct-12 18:38N 37°55' W 122°28'0 0.0
2017-Oct-12 18:29N 37°55' W 122°28'0 0.0
2017-Oct-12 17:59N 37°55' W 122°28'0 0.0
2017-Oct-12 17:29N 37°55' W 122°28'0 0.0
2017-Oct-12 16:59N 37°55' W 122°28'0 0.0
2017-Oct-12 16:29N 37°55' W 122°28'0 0.0
2017-Oct-12 15:59N 37°55' W 122°28'0 0.0
2017-Oct-12 15:29N 37°55' W 122°28'0 0.0
2017-Oct-12 14:59N 37°55' W 122°28'0 0.0
2017-Oct-12 14:29N 37°55' W 122°28'0 0.0
2017-Oct-12 13:56N 37°55' W 122°28'0 0.0
2017-Oct-12 13:29N 37°55' W 122°28'0 0.0
2017-Oct-12 12:59N 37°55' W 122°28'0 0.0
2017-Oct-12 12:29N 37°55' W 122°28'0 0.0
2017-Oct-12 11:53N 37°55' W 122°28'0 0.0
2017-Oct-12 11:26N 37°55' W 122°28'0 0.0
2017-Oct-12 10:59N 37°55' W 122°28'0 0.0
2017-Oct-12 10:29N 37°55' W 122°28'0 0.0
2017-Oct-12 09:59N 37°55' W 122°28'0 0.0
2017-Oct-12 09:26N 37°55' W 122°28'0 0.0
2017-Oct-12 08:59N 37°55' W 122°28'0 0.0
2017-Oct-12 08:29N 37°55' W 122°28'0 0.0
2017-Oct-12 07:59N 37°55' W 122°28'0 0.0
2017-Oct-12 07:29N 37°55' W 122°28'0 0.0
2017-Oct-12 06:56N 37°55' W 122°28'0 0.0
2017-Oct-12 06:29N 37°55' W 122°28'0 0.0
2017-Oct-12 05:59N 37°55' W 122°28'0 0.0
2017-Oct-12 05:29N 37°55' W 122°28'0 0.0
2017-Oct-12 04:59N 37°55' W 122°28'0 0.0
2017-Oct-12 04:29N 37°55' W 122°28'0 0.0
2017-Oct-12 03:59N 37°55' W 122°28'0 0.0
2017-Oct-12 03:29N 37°55' W 122°28'0 0.0
2017-Oct-12 02:59N 37°55' W 122°28'0 0.0
2017-Oct-12 02:29N 37°55' W 122°28'0 0.0
2017-Oct-12 01:59N 37°55' W 122°28'0 0.0
2017-Oct-12 01:26N 37°55' W 122°28'0 0.0
2017-Oct-12 00:59N 37°55' W 122°28'0 0.0
2017-Oct-12 00:29N 37°55' W 122°28'0 0.0
2017-Oct-11 23:59N 37°55' W 122°28'0 0.0
2017-Oct-11 23:29N 37°55' W 122°28'0 0.0
2017-Oct-11 22:56N 37°55' W 122°28'0 0.0
2017-Oct-11 22:29N 37°55' W 122°28'0 0.0
2017-Oct-11 21:59N 37°55' W 122°28'0 0.0
2017-Oct-11 21:26N 37°55' W 122°28'0 0.0
2017-Oct-11 20:59N 37°55' W 122°28'0 0.0
2017-Oct-11 20:29N 37°55' W 122°28'0 0.0
2017-Oct-11 19:59N 37°55' W 122°28'0 0.0
2017-Oct-11 19:29N 37°55' W 122°28'0 0.0
2017-Oct-11 18:59N 37°55' W 122°28'0 0.0
2017-Oct-11 18:29N 37°55' W 122°28'0 0.0
2017-Oct-11 17:59N 37°55' W 122°28'0 0.0
2017-Oct-11 17:29N 37°55' W 122°28'  
2017-Oct-09 00:10N 37°54' W 122°27'3 3.2
2017-Oct-08 23:07N 37°51' W 122°25'110.1
2017-Oct-08 23:00N 37°50' W 122°26'1 2.4
2017-Oct-08 22:29N 37°49' W 122°27'0 0.4
2017-Oct-08 22:00N 37°49' W 122°27'0 0.3
2017-Oct-08 21:30N 37°49' W 122°27'1 3.0
2017-Oct-08 21:00N 37°50' W 122°28'4 8.0
2017-Oct-08 20:30N 37°54' W 122°27'2 3.3
2017-Oct-08 20:00N 37°55' W 122°28'0 0.0
2017-Oct-08 19:24N 37°55' W 122°28'0 0.0
2017-Oct-08 18:54N 37°55' W 122°28'0 0.0
2017-Oct-08 18:30N 37°55' W 122°28'0 0.0
2017-Oct-08 18:00N 37°55' W 122°28'0 0.0
2017-Oct-08 17:30N 37°55' W 122°28'0 0.0
2017-Oct-08 17:00N 37°55' W 122°28'0 0.0
2017-Oct-08 16:30N 37°55' W 122°28'0 0.0
2017-Oct-08 16:00N 37°55' W 122°28'0 0.0
2017-Oct-08 15:30N 37°55' W 122°28'0 0.0
2017-Oct-08 15:00N 37°55' W 122°28'0 0.0
2017-Oct-08 14:30N 37°55' W 122°28'0 0.0
2017-Oct-08 14:00N 37°55' W 122°28'0 0.0
2017-Oct-08 13:30N 37°55' W 122°28'0 0.0
2017-Oct-08 13:00N 37°55' W 122°28'0 0.0
2017-Oct-08 12:30N 37°55' W 122°28'0 0.0
2017-Oct-08 12:00N 37°55' W 122°28'0 0.0
2017-Oct-08 11:30N 37°55' W 122°28'0 0.0
2017-Oct-08 11:00N 37°55' W 122°28'0 0.0
2017-Oct-08 10:30N 37°55' W 122°28'0 0.0
2017-Oct-08 09:54N 37°55' W 122°28'0 0.0
2017-Oct-08 09:30N 37°55' W 122°28'0 0.0
2017-Oct-08 09:00N 37°55' W 122°28'0 0.0
2017-Oct-08 08:30N 37°55' W 122°28'0 0.0
2017-Oct-08 08:00N 37°55' W 122°28'0 0.0
2017-Oct-08 07:30N 37°55' W 122°28'0 0.0
2017-Oct-08 07:00N 37°55' W 122°28'0 0.3
2017-Oct-08 06:30N 37°55' W 122°28'2 2.9
2017-Oct-08 05:58N 37°54' W 122°27'1 1.6
2017-Oct-08 05:30N 37°53' W 122°26'3 5.8
2017-Oct-08 05:00N 37°51' W 122°28'0 0.2
2017-Oct-08 04:29N 37°51' W 122°29'0 0.0
2017-Oct-08 03:44N 37°51' W 122°29'0 0.0
2017-Oct-08 03:26N 37°51' W 122°29'0 0.0
2017-Oct-08 02:59N 37°51' W 122°29'0 0.0
2017-Oct-08 02:26N 37°51' W 122°29'0 0.0
2017-Oct-08 01:56N 37°51' W 122°29'0 0.1
2017-Oct-08 01:29N 37°51' W 122°29'0 0.1
2017-Oct-08 00:53N 37°51' W 122°29'0 0.0
2017-Oct-08 00:26N 37°51' W 122°29'0 0.0
2017-Oct-07 23:50N 37°51' W 122°29'0 0.0
2017-Oct-07 23:30N 37°51' W 122°29'1 3.0
2017-Oct-07 23:00N 37°50' W 122°28'1 2.3
2017-Oct-07 22:30N 37°49' W 122°27'0 0.1
2017-Oct-07 21:59N 37°49' W 122°27'0 0.1
2017-Oct-07 21:29N 37°49' W 122°27'0 0.7
2017-Oct-07 21:00N 37°49' W 122°27'  
Track history (hours):
 
Tides and Currents Weather Stations Pressure Air Temp Water Temp Dewpoint Dewpoint Depression Visibility Wind Speed Wind Dir Waves Ship Positions

Emrys

Last reported at 2017-Oct-17 05:59 UTC. Time now 2017-Oct-17 06:09 UTC.
Position N 37°55' W 122°28'.

Length 32 m.

Type: Pleasure craft. MMSI: 319037600.

Date/timePositionNaut miles runAvg speedWind from/ knotsBaromVisibWave heightAir tempDewpointWater temp
2017-Oct-17 05:59N 37°55' W 122°28'0 0.0
2017-Oct-17 05:29N 37°55' W 122°28'0 0.0
2017-Oct-17 04:59N 37°55' W 122°28'0 0.0
2017-Oct-17 04:29N 37°55' W 122°28'0 0.0
2017-Oct-17 03:59N 37°55' W 122°28'0 0.0
2017-Oct-17 03:14N 37°55' W 122°28'0 0.0
2017-Oct-17 02:59N 37°55' W 122°28'0 0.0
2017-Oct-17 02:26N 37°55' W 122°28'0 0.0
2017-Oct-17 01:59N 37°55' W 122°28'0 0.0
2017-Oct-17 01:29N 37°55' W 122°28'0 0.0
2017-Oct-17 00:59N 37°55' W 122°28'0 0.0
2017-Oct-17 00:29N 37°55' W 122°28'0 0.0
2017-Oct-16 23:59N 37°55' W 122°28'0 0.0
2017-Oct-16 23:29N 37°55' W 122°28'0 0.0
2017-Oct-16 22:59N 37°55' W 122°28'0 0.0
2017-Oct-16 22:29N 37°55' W 122°28'0 0.0
2017-Oct-16 21:56N 37°55' W 122°28'0 0.0
2017-Oct-16 21:26N 37°55' W 122°28'0 0.0
2017-Oct-16 20:59N 37°55' W 122°28'0 0.0
2017-Oct-16 20:29N 37°55' W 122°28'0 0.0
2017-Oct-16 19:56N 37°55' W 122°28'0 0.0
2017-Oct-16 19:29N 37°55' W 122°28'0 0.0
2017-Oct-16 18:56N 37°55' W 122°28'0 0.0
2017-Oct-16 18:26N 37°55' W 122°28'0 0.0
2017-Oct-16 17:59N 37°55' W 122°28'0 0.0
2017-Oct-16 17:29N 37°55' W 122°28'0 0.0
2017-Oct-16 16:56N 37°55' W 122°28'0 0.0
2017-Oct-16 16:29N 37°55' W 122°28'0 0.0
2017-Oct-16 15:59N 37°55' W 122°28'0 0.0
2017-Oct-16 15:29N 37°55' W 122°28'0 0.0
2017-Oct-16 14:59N 37°55' W 122°28'0 0.0
2017-Oct-16 14:26N 37°55' W 122°28'0 0.0
2017-Oct-16 13:29N 37°55' W 122°28'0 0.0
2017-Oct-16 12:59N 37°55' W 122°28'0 0.0
2017-Oct-16 12:29N 37°55' W 122°28'0 0.0
2017-Oct-16 11:59N 37°55' W 122°28'0 0.0
2017-Oct-16 11:29N 37°55' W 122°28'0 0.0
2017-Oct-16 10:59N 37°55' W 122°28'0 0.0
2017-Oct-16 10:26N 37°55' W 122°28'0 0.0
2017-Oct-16 09:56N 37°55' W 122°28'0 0.0
2017-Oct-16 09:29N 37°55' W 122°28'0 0.0
2017-Oct-16 08:59N 37°55' W 122°28'0 0.0
2017-Oct-16 08:29N 37°55' W 122°28'0 0.0
2017-Oct-16 07:59N 37°55' W 122°28'0 0.0
2017-Oct-16 07:29N 37°55' W 122°28'0 0.0
2017-Oct-16 06:59N 37°55' W 122°28'0 0.0
2017-Oct-16 06:29N 37°55' W 122°28'0 0.0
2017-Oct-16 05:59N 37°55' W 122°28'0 0.0
2017-Oct-16 05:29N 37°55' W 122°28'0 0.0
2017-Oct-16 04:59N 37°55' W 122°28'0 0.0
2017-Oct-16 04:29N 37°55' W 122°28'0 0.0
2017-Oct-16 03:59N 37°55' W 122°28'0 0.0
2017-Oct-16 03:29N 37°55' W 122°28'0 0.0
2017-Oct-16 02:59N 37°55' W 122°28'0 0.0
2017-Oct-16 02:29N 37°55' W 122°28'0 0.0
2017-Oct-16 01:59N 37°55' W 122°28'0 0.0
2017-Oct-16 01:29N 37°55' W 122°28'1 2.8
2017-Oct-16 01:00N 37°54' W 122°27'1 2.0
2017-Oct-16 00:30N 37°55' W 122°26'3 5.3
2017-Oct-15 23:58N 37°52' W 122°27'1 2.3
2017-Oct-15 23:30N 37°52' W 122°26'2 3.8
2017-Oct-15 22:52N 37°52' W 122°29'2 6.1
2017-Oct-15 22:29N 37°50' W 122°26'3 7.0
2017-Oct-15 22:00N 37°48' W 122°23'0 0.5
2017-Oct-15 21:27N 37°48' W 122°23'3 6.1
2017-Oct-15 21:00N 37°49' W 122°26'2 3.6
2017-Oct-15 20:30N 37°50' W 122°28'5 0.3
2017-Oct-15 02:22N 37°55' W 122°28'0 0.0
2017-Oct-15 01:58N 37°55' W 122°28'0 0.0
2017-Oct-15 01:28N 37°55' W 122°28'0 0.0
2017-Oct-14 22:01N 37°55' W 122°28'0 0.0
2017-Oct-14 21:58N 37°55' W 122°28'0 0.0
2017-Oct-14 19:55N 37°55' W 122°28'0 0.0
2017-Oct-14 19:28N 37°55' W 122°28'2 0.1
2017-Oct-14 00:27N 37°54' W 122°27'410.1
2017-Oct-14 00:00N 37°50' W 122°26'1 2.6
2017-Oct-13 23:29N 37°48' W 122°26'0 0.0
2017-Oct-13 22:59N 37°48' W 122°26'0 0.1
2017-Oct-13 22:29N 37°48' W 122°26'0 0.1
2017-Oct-13 21:59N 37°48' W 122°26'0 0.1
2017-Oct-13 21:29N 37°48' W 122°26'0 0.0
2017-Oct-13 20:59N 37°48' W 122°26'0 0.1
2017-Oct-13 20:29N 37°48' W 122°26'0 0.0
2017-Oct-13 19:59N 37°48' W 122°26'0 0.0
2017-Oct-13 19:29N 37°48' W 122°26'3 5.8
2017-Oct-13 19:00N 37°51' W 122°27'4 8.3
2017-Oct-13 18:30N 37°55' W 122°28'0 0.0
2017-Oct-13 18:00N 37°55' W 122°28'3 0.2
2017-Oct-13 04:17N 37°53' W 122°26'2 5.9
2017-Oct-13 03:59N 37°52' W 122°25'2 4.1
2017-Oct-13 03:30N 37°50' W 122°25'0 0.1
2017-Oct-13 02:41N 37°50' W 122°25'0 0.6
2017-Oct-13 02:17N 37°50' W 122°25'1 2.8
2017-Oct-13 02:00N 37°49' W 122°25'2 4.9
2017-Oct-13 01:30N 37°50' W 122°28'5 0.8
2017-Oct-12 18:38N 37°55' W 122°28'0 0.0
2017-Oct-12 18:29N 37°55' W 122°28'0 0.0
2017-Oct-12 17:59N 37°55' W 122°28'0 0.0
2017-Oct-12 17:29N 37°55' W 122°28'0 0.0
2017-Oct-12 16:59N 37°55' W 122°28'0 0.0
2017-Oct-12 16:29N 37°55' W 122°28'0 0.0
2017-Oct-12 15:59N 37°55' W 122°28'0 0.0
2017-Oct-12 15:29N 37°55' W 122°28'0 0.0
2017-Oct-12 14:59N 37°55' W 122°28'0 0.0
2017-Oct-12 14:29N 37°55' W 122°28'0 0.0
2017-Oct-12 13:56N 37°55' W 122°28'0 0.0
2017-Oct-12 13:29N 37°55' W 122°28'0 0.0
2017-Oct-12 12:59N 37°55' W 122°28'0 0.0
2017-Oct-12 12:29N 37°55' W 122°28'0 0.0
2017-Oct-12 11:53N 37°55' W 122°28'0 0.0
2017-Oct-12 11:26N 37°55' W 122°28'0 0.0
2017-Oct-12 10:59N 37°55' W 122°28'0 0.0
2017-Oct-12 10:29N 37°55' W 122°28'0 0.0
2017-Oct-12 09:59N 37°55' W 122°28'0 0.0
2017-Oct-12 09:26N 37°55' W 122°28'0 0.0
2017-Oct-12 08:59N 37°55' W 122°28'0 0.0
2017-Oct-12 08:29N 37°55' W 122°28'0 0.0
2017-Oct-12 07:59N 37°55' W 122°28'0 0.0
2017-Oct-12 07:29N 37°55' W 122°28'0 0.0
2017-Oct-12 06:56N 37°55' W 122°28'0 0.0
2017-Oct-12 06:29N 37°55' W 122°28'0 0.0
2017-Oct-12 05:59N 37°55' W 122°28'0 0.0
2017-Oct-12 05:29N 37°55' W 122°28'0 0.0
2017-Oct-12 04:59N 37°55' W 122°28'0 0.0
2017-Oct-12 04:29N 37°55' W 122°28'0 0.0
2017-Oct-12 03:59N 37°55' W 122°28'0 0.0
2017-Oct-12 03:29N 37°55' W 122°28'0 0.0
2017-Oct-12 02:59N 37°55' W 122°28'0 0.0
2017-Oct-12 02:29N 37°55' W 122°28'0 0.0
2017-Oct-12 01:59N 37°55' W 122°28'0 0.0
2017-Oct-12 01:26N 37°55' W 122°28'0 0.0
2017-Oct-12 00:59N 37°55' W 122°28'0 0.0
2017-Oct-12 00:29N 37°55' W 122°28'0 0.0
2017-Oct-11 23:59N 37°55' W 122°28'0 0.0
2017-Oct-11 23:29N 37°55' W 122°28'0 0.0
2017-Oct-11 22:56N 37°55' W 122°28'0 0.0
2017-Oct-11 22:29N 37°55' W 122°28'0 0.0
2017-Oct-11 21:59N 37°55' W 122°28'0 0.0
2017-Oct-11 21:26N 37°55' W 122°28'0 0.0
2017-Oct-11 20:59N 37°55' W 122°28'0 0.0
2017-Oct-11 20:29N 37°55' W 122°28'0 0.0
2017-Oct-11 19:59N 37°55' W 122°28'0 0.0
2017-Oct-11 19:29N 37°55' W 122°28'0 0.0
2017-Oct-11 18:59N 37°55' W 122°28'0 0.0
2017-Oct-11 18:29N 37°55' W 122°28'0 0.0
2017-Oct-11 17:59N 37°55' W 122°28'0 0.0
2017-Oct-11 17:29N 37°55' W 122°28'  
2017-Oct-09 00:10N 37°54' W 122°27'3 3.2
2017-Oct-08 23:07N 37°51' W 122°25'110.1
2017-Oct-08 23:00N 37°50' W 122°26'1 2.4
2017-Oct-08 22:29N 37°49' W 122°27'0 0.4
2017-Oct-08 22:00N 37°49' W 122°27'0 0.3
2017-Oct-08 21:30N 37°49' W 122°27'1 3.0
2017-Oct-08 21:00N 37°50' W 122°28'4 8.0
2017-Oct-08 20:30N 37°54' W 122°27'2 3.3
2017-Oct-08 20:00N 37°55' W 122°28'0 0.0
2017-Oct-08 19:24N 37°55' W 122°28'0 0.0
2017-Oct-08 18:54N 37°55' W 122°28'0 0.0
2017-Oct-08 18:30N 37°55' W 122°28'0 0.0
2017-Oct-08 18:00N 37°55' W 122°28'0 0.0
2017-Oct-08 17:30N 37°55' W 122°28'0 0.0
2017-Oct-08 17:00N 37°55' W 122°28'0 0.0
2017-Oct-08 16:30N 37°55' W 122°28'0 0.0
2017-Oct-08 16:00N 37°55' W 122°28'0 0.0
2017-Oct-08 15:30N 37°55' W 122°28'0 0.0
2017-Oct-08 15:00N 37°55' W 122°28'0 0.0
2017-Oct-08 14:30N 37°55' W 122°28'0 0.0
2017-Oct-08 14:00N 37°55' W 122°28'0 0.0
2017-Oct-08 13:30N 37°55' W 122°28'0 0.0
2017-Oct-08 13:00N 37°55' W 122°28'0 0.0
2017-Oct-08 12:30N 37°55' W 122°28'0 0.0
2017-Oct-08 12:00N 37°55' W 122°28'0 0.0
2017-Oct-08 11:30N 37°55' W 122°28'0 0.0
2017-Oct-08 11:00N 37°55' W 122°28'0 0.0
2017-Oct-08 10:30N 37°55' W 122°28'0 0.0
2017-Oct-08 09:54N 37°55' W 122°28'0 0.0
2017-Oct-08 09:30N 37°55' W 122°28'0 0.0
2017-Oct-08 09:00N 37°55' W 122°28'0 0.0
2017-Oct-08 08:30N 37°55' W 122°28'0 0.0
2017-Oct-08 08:00N 37°55' W 122°28'0 0.0
2017-Oct-08 07:30N 37°55' W 122°28'0 0.0
2017-Oct-08 07:00N 37°55' W 122°28'0 0.3
2017-Oct-08 06:30N 37°55' W 122°28'2 2.9
2017-Oct-08 05:58N 37°54' W 122°27'1 1.6
2017-Oct-08 05:30N 37°53' W 122°26'3 5.8
2017-Oct-08 05:00N 37°51' W 122°28'0 0.2
2017-Oct-08 04:29N 37°51' W 122°29'0 0.0
2017-Oct-08 03:44N 37°51' W 122°29'0 0.0
2017-Oct-08 03:26N 37°51' W 122°29'0 0.0
2017-Oct-08 02:59N 37°51' W 122°29'0 0.0
2017-Oct-08 02:26N 37°51' W 122°29'0 0.0
2017-Oct-08 01:56N 37°51' W 122°29'0 0.1
2017-Oct-08 01:29N 37°51' W 122°29'0 0.1
2017-Oct-08 00:53N 37°51' W 122°29'0 0.0
2017-Oct-08 00:26N 37°51' W 122°29'0 0.0
2017-Oct-07 23:50N 37°51' W 122°29'0 0.0
2017-Oct-07 23:30N 37°51' W 122°29'1 3.0
2017-Oct-07 23:00N 37°50' W 122°28'1 2.3
2017-Oct-07 22:30N 37°49' W 122°27'0 0.1
2017-Oct-07 21:59N 37°49' W 122°27'0 0.1
2017-Oct-07 21:29N 37°49' W 122°27'0 0.7
2017-Oct-07 21:00N 37°49' W 122°27'  

Dump ship's entire track history